Time;durP1;ratioP1;P1;durP2;ratioP2;P2;SDS_P1;SDS_P2;PMS_P1;PMS_P2;Temp;Humidity;BMP_temperature;BMP_pressure;BME280_temperature;BME280_humidity;BME280_pressure;Samples;Min_cycle;Max_cycle;Signal;HPM_P1;HPM_P2
2022/02/09 00:09:05;;;;;;;159.43;96.35;;;205.20;2227.20;;;;;;4972509;28;20030;-56
2022/02/09 00:11:39;;;;;;;164.43;95.75;;;205.20;2227.20;;;;;;4972390;28;20027;-56
2022/02/09 00:19:50;;;;;;;212.88;123.07;;;205.00;2252.80;;;;;;4972349;28;20050;-56
2022/02/09 01:56:31;;;;;;;22.75;13.50;;;205.60;2252.80;;;;;;4974898;28;20385;-57
2022/02/09 01:58:57;;;;;;;22.02;12.23;;;205.60;2252.80;;;;;;4974644;28;20027;-57
2022/02/09 02:01:24;;;;;;;31.17;22.17;;;205.60;2252.80;;;;;;4974507;28;20059;-58
2022/02/09 02:03:50;;;;;;;25.08;18.48;;;205.50;2252.80;;;;;;4974588;28;20081;-56
2022/02/09 02:06:18;;;;;;;26.40;17.30;;;205.50;2252.80;;;;;;4974668;28;20027;-57
2022/02/09 02:08:45;;;;;;;14.52;10.30;;;205.50;2252.80;;;;;;4974707;28;20069;-57
2022/02/09 02:11:20;;;;;;;11.48;7.00;;;205.40;2252.80;;;;;;4974739;28;20162;-57
2022/02/09 02:14:04;;;;;;;16.17;9.85;;;205.60;2252.80;;;;;;4974488;28;20077;-57
2022/02/09 02:16:39;;;;;;;10.88;6.20;;;205.70;2252.80;;;;;;4974546;28;20097;-56
2022/02/09 02:19:10;;;;;;;25.25;19.17;;;205.60;2252.80;;;;;;4974698;28;20362;-57
2022/02/09 03:15:10;;;;;;;5.85;3.17;;;230.40;1971.20;;;;;;4933203;29;20039;-58
2022/02/09 03:17:31;;;;;;;4.38;2.63;;;230.40;2252.80;;;;;;4932377;29;20036;-58
2022/02/09 03:20:06;;;;;;;4.95;3.25;;;230.50;1894.40;;;;;;4932740;29;20082;-58
2022/02/09 03:23:00;;;;;;;5.18;2.45;;;230.60;1868.80;;;;;;4932956;29;20391;-58
2022/02/09 03:54:57;;;;;;;6.78;3.42;;;230.90;1868.80;;;;;;4973035;28;20034;-58
2022/02/09 03:57:26;;;;;;;6.82;3.17;;;230.90;1868.80;;;;;;4972784;28;20023;-56
2022/02/09 03:59:52;;;;;;;6.93;3.25;;;231.00;1843.20;;;;;;4972449;28;20127;-56
2022/02/09 04:02:18;;;;;;;9.38;4.18;;;230.90;1868.80;;;;;;4972414;28;20130;-56
2022/02/09 04:04:48;;;;;;;16.92;9.45;;;230.90;1868.80;;;;;;4972598;28;20073;-57
2022/02/09 04:07:13;;;;;;;22.35;14.45;;;230.90;1894.40;;;;;;4972712;28;20389;-56
2022/02/09 04:09:45;;;;;;;21.95;16.15;;;230.90;1868.80;;;;;;4973179;28;20037;-56
2022/02/09 04:12:29;;;;;;;12.15;10.27;;;230.70;1996.80;;;;;;4955430;28;20042;-57
2022/02/09 04:15:15;;;;;;;10.20;7.85;;;230.70;1945.60;;;;;;4973355;28;20041;-57
2022/02/09 04:18:00;;;;;;;10.18;7.07;;;230.70;1945.60;;;;;;4973196;28;20027;-57
2022/02/09 04:51:45;;;;;;;19.25;9.90;;;230.70;1945.60;;;;;;4975328;28;20050;-60
2022/02/09 04:56:52;;;;;;;15.60;8.68;;;230.70;1971.20;;;;;;4971926;28;20480;-61
2022/02/09 04:59:31;;;;;;;15.30;7.43;;;230.60;1996.80;;;;;;4971194;28;20039;-59
2022/02/09 05:25:44;;;;;;;73.90;40.65;;;230.50;2252.80;;;;;;4911650;29;20040;-59
2022/02/09 05:28:19;;;;;;;28.90;14.98;;;230.50;2201.60;;;;;;4917628;29;20040;-57
2022/02/09 05:30:48;;;;;;;18.55;12.18;;;230.60;2099.20;;;;;;4918268;29;20046;-58
2022/02/09 05:33:14;;;;;;;11.93;6.68;;;230.60;2073.60;;;;;;4917995;29;20136;-59
2022/02/09 05:35:44;;;;;;;6.47;3.38;;;230.50;2022.40;;;;;;4917922;29;20032;-59
2022/02/09 05:38:14;;;;;;;11.02;6.75;;;230.60;1971.20;;;;;;4918008;29;20039;-56
2022/02/09 05:40:41;;;;;;;10.40;6.63;;;230.60;1971.20;;;;;;4917827;29;20056;-59
2022/02/09 05:43:08;;;;;;;11.73;7.57;;;230.60;2022.40;;;;;;4917857;29;20063;-57
2022/02/09 05:56:20;;;;;;;12.20;5.82;;;230.70;2022.40;;;;;;4898980;29;20294;-57
2022/02/09 05:58:50;;;;;;;6.30;4.30;;;230.70;1971.20;;;;;;4898966;29;20089;-59
2022/02/09 06:01:16;;;;;;;7.15;4.30;;;230.60;1945.60;;;;;;4899144;29;20108;-59
2022/02/09 06:03:42;;;;;;;11.15;6.05;;;230.50;1971.20;;;;;;4899126;29;20033;-63
2022/02/09 06:06:09;;;;;;;7.50;4.57;;;230.60;1971.20;;;;;;4898842;29;20044;-59
2022/02/09 06:08:36;;;;;;;5.90;3.65;;;230.50;1971.20;;;;;;4899034;29;20028;-60
2022/02/09 06:11:11;;;;;;;6.90;3.38;;;230.60;1920.00;;;;;;4899139;29;20092;-62
2022/02/09 06:21:50;;;;;;;7.90;2.97;;;230.60;1843.20;;;;;;4898823;29;20047;-57
2022/02/09 06:24:16;;;;;;;3.20;1.77;;;230.60;1843.20;;;;;;4900051;28;20032;-60
2022/02/09 06:26:41;;;;;;;13.95;11.82;;;230.70;1817.60;;;;;;4977344;28;20035;-65
2022/02/09 06:29:08;;;;;;;80.75;71.45;;;230.70;1817.60;;;;;;4976868;28;20049;-60
2022/02/09 06:31:36;;;;;;;17.63;11.73;;;230.80;1792.00;;;;;;4977426;28;20047;-63
2022/02/09 06:34:02;;;;;;;61.08;37.97;;;230.80;1792.00;;;;;;4977623;28;20106;-58
2022/02/09 06:36:28;;;;;;;18.38;12.20;;;230.90;1766.40;;;;;;4977050;28;20031;-59
2022/02/09 06:38:55;;;;;;;20.77;17.00;;;230.90;1740.80;;;;;;4974199;28;20082;-63
2022/02/09 06:41:20;;;;;;;10.98;5.43;;;230.90;1740.80;;;;;;4973897;28;20122;-60
2022/02/09 06:43:46;;;;;;;17.45;10.57;;;231.00;1740.80;;;;;;4974130;28;20046;-62
2022/02/09 06:46:13;;;;;;;13.30;10.43;;;231.00;1766.40;;;;;;4973375;28;20085;-60
2022/02/09 06:48:40;;;;;;;8.27;4.82;;;230.90;1766.40;;;;;;4973137;28;20098;-59
2022/02/09 06:51:13;;;;;;;53.45;34.90;;;231.00;1740.80;;;;;;4974047;28;20031;-59
2022/02/09 06:54:02;;;;;;;82.95;63.42;;;231.00;1740.80;;;;;;4973787;28;20393;-62
2022/02/09 06:57:34;;;;;;;12.00;9.20;;;231.00;1740.80;;;;;;4973622;28;20038;-60
2022/02/09 06:59:31;;;;;;;10.30;6.72;;;230.90;1715.20;;;;;;4952563;28;20042;-62
2022/02/09 07:02:04;;;;;;;37.05;29.15;;;231.20;1740.80;;;;;;4973489;28;20126;-59
2022/02/09 07:04:31;;;;;;;19.48;13.18;;;231.10;1715.20;;;;;;4973585;28;20089;-63
2022/02/09 07:06:57;;;;;;;18.08;14.05;;;231.20;1715.20;;;;;;4973559;28;20023;-63
2022/02/09 07:09:24;;;;;;;14.68;11.23;;;231.30;1715.20;;;;;;4973622;28;20370;-60
2022/02/09 07:11:51;;;;;;;13.05;8.20;;;231.30;1689.60;;;;;;4973414;28;20022;-60
2022/02/09 07:14:21;;;;;;;6.47;4.20;;;231.30;1715.20;;;;;;4973371;28;20023;-60
2022/02/09 07:16:47;;;;;;;9.20;5.05;;;231.30;1766.40;;;;;;4973214;28;20089;-64
2022/02/09 07:19:13;;;;;;;8.85;5.40;;;231.30;1843.20;;;;;;4973458;28;20034;-62
2022/02/09 07:21:40;;;;;;;11.18;7.07;;;231.30;1843.20;;;;;;4972994;28;20125;-63
2022/02/09 07:24:11;;;;;;;12.18;7.63;;;231.30;1894.40;;;;;;4973298;28;20034;-63
2022/02/09 07:29:09;;;;;;;15.32;10.32;;;231.30;1894.40;;;;;;4972969;28;20031;-62
2022/02/09 07:31:35;;;;;;;13.85;9.15;;;231.30;1945.60;;;;;;4973269;28;20035;-63
2022/02/09 07:34:00;;;;;;;6.70;3.95;;;256.00;1945.60;;;;;;4973065;28;20085;-64
2022/02/09 07:36:31;;;;;;;16.17;5.18;;;256.00;1868.80;;;;;;4973121;28;20023;-63
2022/02/09 07:39:00;;;;;;;6.32;3.22;;;256.00;1894.40;;;;;;4972991;28;20042;-60
2022/02/09 07:41:25;;;;;;;6.82;4.32;;;256.00;1868.80;;;;;;4972873;28;20547;-64
2022/02/09 07:51:39;;;;;;;7.65;3.92;;;256.20;1996.80;;;;;;4972648;28;20031;-60
2022/02/09 07:54:05;;;;;;;14.38;7.47;;;256.20;1971.20;;;;;;4972919;28;20023;-64
2022/02/09 07:56:33;;;;;;;9.30;7.43;;;256.00;2022.40;;;;;;4972649;28;20034;-63
2022/02/09 07:59:00;;;;;;;20.95;19.00;;;256.10;2073.60;;;;;;4972464;28;20030;-62
2022/02/09 08:01:27;;;;;;;14.02;8.40;;;256.20;2099.20;;;;;;4972446;28;20078;-62
2022/02/09 08:03:56;;;;;;;19.30;17.35;;;256.10;2150.40;;;;;;4972775;28;20114;-62
2022/02/09 08:06:25;;;;;;;16.33;12.20;;;256.20;2227.20;;;;;;4972431;28;20035;-59
2022/02/09 08:08:59;;;;;;;6.60;5.05;;;256.20;2252.80;;;;;;4972360;28;20019;-60
2022/02/09 08:11:32;;;;;;;23.67;12.85;;;256.20;2252.80;;;;;;4972446;28;20039;-63
2022/02/09 08:23:34;;;;;;;33.42;20.88;;;281.70;2278.40;;;;;;4971908;28;20041;-62
2022/02/09 08:27:56;;;;;;;81.07;53.60;;;256.80;2252.80;;;;;;4972383;28;20445;-62
2022/02/09 08:30:45;;;;;;;67.20;41.72;;;256.80;2252.80;;;;;;4971724;28;20038;-64
2022/02/09 08:33:17;;;;;;;148.73;98.53;;;256.80;2252.80;;;;;;4971659;28;20050;-59
2022/02/09 08:35:45;;;;;;;168.10;114.22;;;281.80;2252.80;;;;;;4972070;28;20045;-63
2022/02/09 08:38:10;;;;;;;28.00;21.58;;;281.80;2150.40;;;;;;4971654;28;20034;-63
2022/02/09 08:40:36;;;;;;;6.32;4.18;;;281.60;2176.00;;;;;;4971887;28;20031;-64
2022/02/09 08:43:03;;;;;;;6.97;3.95;;;281.60;2201.60;;;;;;4971644;28;20038;-64
2022/02/09 08:45:29;;;;;;;32.08;21.63;;;281.60;2201.60;;;;;;4971632;28;20034;-64
2022/02/09 08:47:57;;;;;;;21.38;17.20;;;281.80;2176.00;;;;;;4971853;28;20038;-63
2022/02/09 08:50:23;;;;;;;10.20;6.68;;;281.80;2124.80;;;;;;4954381;28;20054;-64
2022/02/09 08:52:50;;;;;;;15.02;10.45;;;281.70;2150.40;;;;;;4953798;28;20143;-62
2022/02/09 08:55:17;;;;;;;8.80;4.90;;;281.80;2124.80;;;;;;4971642;28;20102;-63
2022/02/09 08:57:43;;;;;;;12.60;7.70;;;281.80;2124.80;;;;;;4971622;28;20038;-63
2022/02/09 09:00:20;;;;;;;15.60;10.38;;;281.80;2150.40;;;;;;4971168;28;20049;-64
2022/02/09 09:02:51;;;;;;;10.52;8.57;;;281.90;2201.60;;;;;;4970964;28;20045;-64
2022/02/09 09:05:25;;;;;;;8.73;5.30;;;281.80;2227.20;;;;;;4971481;28;20030;-62
2022/02/09 09:08:08;;;;;;;7.95;5.28;;;281.80;2278.40;;;;;;4971121;28;20080;-59
2022/02/09 09:10:44;;;;;;;6.38;3.40;;;281.80;2278.40;;;;;;4971499;28;20477;-62
2022/02/09 09:59:57;;;;;;;8.32;4.90;;;307.20;2304.00;;;;;;4911588;29;20038;-62
2022/02/09 10:02:13;;;;;;;6.10;3.25;;;307.40;2304.00;;;;;;4911410;29;20111;-59
2022/02/09 10:35:21;;;;;;;11.48;8.27;;;332.90;2022.40;;;;;;4959995;28;20421;-60
2022/02/09 10:37:47;;;;;;;8.55;5.65;;;332.90;2048.00;;;;;;4967510;28;20568;-63
2022/02/09 10:40:40;;;;;;;8.50;7.10;;;333.00;2099.20;;;;;;4974008;28;20070;-59
2022/02/09 10:43:26;;;;;;;8.95;7.00;;;332.90;2124.80;;;;;;4974004;28;20122;-59
2022/02/09 10:46:08;;;;;;;10.10;7.65;;;333.10;2124.80;;;;;;4974202;28;20166;-63
2022/02/09 10:48:39;;;;;;;7.40;5.90;;;333.40;2099.20;;;;;;4973910;28;20105;-60
2022/02/09 10:54:06;;;;;;;5.45;3.47;;;333.70;2022.40;;;;;;4969059;28;20033;-60
2022/02/09 10:56:34;;;;;;;6.45;4.93;;;333.70;2022.40;;;;;;4974128;28;20114;-64
2022/02/09 10:59:03;;;;;;;8.35;5.05;;;333.40;2048.00;;;;;;4973566;28;20157;-60
2022/02/09 11:01:29;;;;;;;8.85;7.82;;;333.50;2048.00;;;;;;4973262;28;20069;-62
2022/02/09 11:03:56;;;;;;;17.35;12.70;;;333.70;2022.40;;;;;;4973779;28;20026;-61
2022/02/09 11:06:31;;;;;;;70.13;49.80;;;333.70;1996.80;;;;;;4973589;28;20041;-63
2022/02/09 11:08:57;;;;;;;11.00;7.95;;;333.70;1945.60;;;;;;4973411;28;20030;-62
2022/02/09 11:11:23;;;;;;;11.32;7.60;;;333.70;1945.60;;;;;;4973643;28;20089;-60
2022/02/09 11:13:50;;;;;;;6.30;3.38;;;333.70;1971.20;;;;;;4973189;28;20473;-61
2022/02/09 11:16:17;;;;;;;16.80;10.10;;;333.70;1945.60;;;;;;4973434;28;20058;-62
2022/02/09 11:18:48;;;;;;;13.10;8.18;;;333.70;1945.60;;;;;;4973556;28;20053;-63
2022/02/09 11:21:14;;;;;;;8.10;4.70;;;358.50;1945.60;;;;;;4973291;28;20045;-60
2022/02/09 11:23:53;;;;;;;7.00;4.38;;;358.50;1945.60;;;;;;4973076;28;20466;-64
2022/02/09 11:27:10;;;;;;;7.50;5.18;;;358.60;1920.00;;;;;;4972792;28;20034;-62
2022/02/09 11:29:49;;;;;;;21.63;13.77;;;358.80;1868.80;;;;;;4966255;28;20392;-63
2022/02/09 11:32:44;;;;;;;17.45;12.43;;;358.90;1868.80;;;;;;4973106;28;20027;-62
2022/02/09 11:35:21;;;;;;;137.50;94.40;;;358.60;1894.40;;;;;;4972864;28;20034;-64
2022/02/09 11:38:10;;;;;;;24.27;16.65;;;358.70;1894.40;;;;;;4972850;28;20026;-60
2022/02/09 11:43:28;;;;;;;7.88;4.95;;;358.90;1843.20;;;;;;4973172;28;20035;-64
2022/02/09 12:09:00;;;;;;;7.18;3.95;;;359.00;1843.20;;;;;;4911253;29;20074;-65
2022/02/09 12:11:41;;;;;;;5.03;3.23;;;359.20;1843.20;;;;;;4911199;29;20031;-64
2022/02/09 12:19:13;;;;;;;8.55;3.88;;;359.00;1843.20;;;;;;4910446;29;20519;-67
2022/02/09 12:24:33;;;;;;;11.73;4.78;;;384.00;1868.80;;;;;;4911307;29;20439;-63
2022/02/09 12:27:10;;;;;;;14.73;8.30;;;359.30;1843.20;;;;;;4910654;29;20028;-67
2022/02/09 12:29:38;;;;;;;7.43;5.72;;;359.30;1843.20;;;;;;4968969;28;20030;-63
2022/02/09 12:32:16;;;;;;;9.35;3.80;;;359.10;1868.80;;;;;;4970084;28;20050;-62
2022/02/09 12:34:45;;;;;;;9.88;3.90;;;359.00;1868.80;;;;;;4970382;28;20027;-63
2022/02/09 12:37:19;;;;;;;5.57;3.00;;;358.90;1894.40;;;;;;4969350;28;20027;-64
2022/02/09 12:39:51;;;;;;;10.20;4.05;;;358.80;1894.40;;;;;;4971629;28;20022;-64
2022/02/09 12:42:19;;;;;;;17.98;12.30;;;358.70;1920.00;;;;;;4972067;28;20048;-64
2022/02/09 12:45:02;;;;;;;23.17;20.77;;;358.90;1894.40;;;;;;4971972;28;20018;-64
2022/02/09 12:47:30;;;;;;;34.50;31.02;;;359.10;1868.80;;;;;;4971638;28;20034;-62
2022/02/09 12:49:56;;;;;;;69.45;58.45;;;359.00;1894.40;;;;;;4971798;28;20034;-65
2022/02/09 12:52:31;;;;;;;8.93;6.10;;;358.90;1894.40;;;;;;4971409;28;20027;-63
2022/02/09 12:55:12;;;;;;;43.10;36.42;;;358.90;1920.00;;;;;;4971666;28;20027;-64
2022/02/09 12:57:41;;;;;;;10.70;9.38;;;359.00;1920.00;;;;;;4971701;28;20029;-65
2022/02/09 13:00:20;;;;;;;130.30;116.53;;;359.10;1920.00;;;;;;4971516;28;20812;-64
2022/02/09 13:02:47;;;;;;;131.65;117.65;;;359.10;1920.00;;;;;;4971529;28;20047;-60
2022/02/09 13:05:13;;;;;;;194.20;174.35;;;359.20;1894.40;;;;;;4971711;28;20030;-64
2022/02/09 13:07:39;;;;;;;119.55;103.10;;;359.00;1920.00;;;;;;4971111;28;20052;-64
2022/02/09 13:10:07;;;;;;;14.45;12.95;;;359.00;1920.00;;;;;;4971607;28;20099;-64
2022/02/09 13:12:36;;;;;;;44.85;40.85;;;359.20;1894.40;;;;;;4971475;28;20386;-63
2022/02/09 13:15:16;;;;;;;24.13;21.67;;;384.00;1868.80;;;;;;4971613;28;20085;-64
2022/02/09 14:16:39;;;;;;;3.90;2.70;;;384.60;1843.20;;;;;;4974467;28;20053;-66
2022/02/09 14:58:23;;;;;;;8.55;4.70;;;359.00;1894.40;;;;;;4973769;28;20081;-71
2022/02/09 15:00:59;;;;;;;20.70;13.52;;;358.90;1894.40;;;;;;4954898;28;20059;-66
2022/02/09 15:08:43;;;;;;;17.98;11.73;;;358.90;1894.40;;;;;;4970691;28;20118;-63
2022/02/09 15:11:15;;;;;;;38.78;34.90;;;358.90;1868.80;;;;;;4971815;28;20042;-66
2022/02/09 15:16:31;;;;;;;18.40;12.07;;;358.90;1894.40;;;;;;4972338;28;20311;-67
2022/02/09 15:19:26;;;;;;;14.07;12.77;;;358.70;1894.40;;;;;;4972002;28;20038;-65
2022/02/09 15:24:35;;;;;;;20.80;18.48;;;358.70;1894.40;;;;;;4972225;28;20552;-64
2022/02/09 15:27:02;;;;;;;16.17;9.98;;;358.60;1920.00;;;;;;4971826;28;20038;-64
2022/02/09 15:29:28;;;;;;;13.95;8.85;;;358.40;1920.00;;;;;;4971814;28;20572;-66
2022/02/09 15:32:00;;;;;;;18.27;16.48;;;333.70;1920.00;;;;;;4971752;28;20089;-61
2022/02/09 15:34:41;;;;;;;65.97;48.72;;;333.70;1945.60;;;;;;4953662;28;20446;-67
2022/02/09 15:37:55;;;;;;;24.38;21.88;;;333.60;1971.20;;;;;;4971607;28;20114;-60
2022/02/09 15:39:58;;;;;;;314.63;247.50;;;333.50;1971.20;;;;;;4963225;28;20037;-66
2022/02/09 16:09:43;;;;;;;91.78;59.28;;;307.90;2099.20;;;;;;4913003;29;20087;-63
2022/02/09 16:22:34;;;;;;;44.22;32.40;;;307.60;2150.40;;;;;;4959666;28;20505;-61
2022/02/09 16:39:00;;;;;;;152.27;115.57;;;282.40;2278.40;;;;;;4970815;28;20158;-58
2022/02/09 16:46:51;;;;;;;132.98;94.18;;;282.00;2278.40;;;;;;4970575;28;20421;-64
2022/02/09 16:49:32;;;;;;;116.60;92.53;;;281.90;2278.40;;;;;;4969967;28;20110;-61
2022/02/09 16:52:08;;;;;;;118.40;98.63;;;281.90;2278.40;;;;;;4966509;28;20045;-67
2022/02/09 17:21:22;;;;;;;212.30;131.40;;;256.90;2252.80;;;;;;4967938;28;19925;-63
2022/02/09 17:23:51;;;;;;;153.10;107.00;;;256.80;2252.80;;;;;;4964896;28;20022;-64
2022/02/09 17:26:17;;;;;;;86.80;58.08;;;256.90;2252.80;;;;;;4968830;28;20027;-62
2022/02/09 17:28:44;;;;;;;84.32;52.20;;;256.70;2252.80;;;;;;4968488;28;20408;-58
2022/02/09 17:57:29;;;;;;;106.63;80.53;;;256.10;2252.80;;;;;;4968165;28;20105;-61
2022/02/09 18:00:11;;;;;;;66.47;47.10;;;256.10;2252.80;;;;;;4968111;28;20114;-61
2022/02/09 18:02:37;;;;;;;48.83;30.60;;;256.20;2252.80;;;;;;4965310;28;20051;-59
2022/02/09 18:05:07;;;;;;;24.38;17.77;;;256.10;2252.80;;;;;;4969068;28;20465;-59
2022/02/09 18:07:35;;;;;;;37.55;23.40;;;256.10;2252.80;;;;;;4968787;28;20043;-58
2022/02/09 18:10:11;;;;;;;35.05;25.33;;;256.10;2252.80;;;;;;4968901;28;20019;-61
2022/02/09 18:26:38;;;;;;;65.18;40.90;;;230.90;2252.80;;;;;;4970264;28;20054;-62
2022/02/09 18:44:41;;;;;;;24.42;17.75;;;230.70;2252.80;;;;;;4973207;28;20515;-59
2022/02/09 19:03:35;;;;;;;40.05;29.88;;;230.60;2252.80;;;;;;4958071;28;20049;-58
2022/02/09 19:06:17;;;;;;;46.13;26.00;;;230.40;2252.80;;;;;;4973390;28;20034;-58
2022/02/09 19:46:46;;;;;;;216.23;132.25;;;205.60;2252.80;;;;;;4891803;29;20059;-59
2022/02/09 19:56:30;;;;;;;42.85;30.00;;;205.50;2252.80;;;;;;4891369;29;20491;-59
2022/02/09 20:01:24;;;;;;;37.05;25.83;;;205.40;2252.80;;;;;;4895526;29;20062;-58
2022/02/09 20:03:50;;;;;;;29.30;20.60;;;205.40;2252.80;;;;;;4898663;29;20127;-58
2022/02/09 20:06:16;;;;;;;35.80;20.42;;;205.20;2252.80;;;;;;4891171;29;20024;-59
2022/02/09 20:08:42;;;;;;;40.03;28.98;;;205.00;2252.80;;;;;;4890984;29;20040;-58
2022/02/09 20:11:11;;;;;;;39.72;29.83;;;205.00;2252.80;;;;;;4890916;29;20029;-59
2022/02/09 20:13:38;;;;;;;32.53;21.63;;;204.90;2252.80;;;;;;4891520;29;20047;-59
2022/02/09 20:16:04;;;;;;;31.27;21.58;;;180.10;2252.80;;;;;;4892368;29;20064;-61
2022/02/09 20:18:33;;;;;;;29.92;21.27;;;180.00;2252.80;;;;;;4891954;29;20024;-59
2022/02/09 20:20:59;;;;;;;29.30;20.45;;;180.10;2252.80;;;;;;4892090;29;20032;-57
2022/02/09 20:23:27;;;;;;;43.97;25.38;;;180.10;2252.80;;;;;;4934946;28;20089;-59
2022/02/09 20:25:53;;;;;;;39.85;26.30;;;180.00;2252.80;;;;;;4970085;28;20011;-58
2022/02/09 20:28:19;;;;;;;36.55;25.88;;;180.10;2252.80;;;;;;4970047;28;20031;-60
2022/02/09 20:30:52;;;;;;;161.63;91.65;;;180.10;2252.80;;;;;;4970408;28;20050;-58
2022/02/09 20:33:22;;;;;;;109.68;62.47;;;180.10;2252.80;;;;;;4974217;28;20122;-59
2022/02/09 20:35:48;;;;;;;61.08;35.78;;;180.10;2252.80;;;;;;4979267;28;20551;-60
2022/02/09 20:38:19;;;;;;;49.25;28.73;;;180.10;2252.80;;;;;;4980351;28;20022;-58
2022/02/09 20:40:52;;;;;;;128.98;75.18;;;180.10;2252.80;;;;;;4979815;28;20022;-58
2022/02/09 20:43:20;;;;;;;167.67;105.83;;;180.00;2252.80;;;;;;4978613;28;20050;-58
2022/02/09 20:45:50;;;;;;;92.85;53.00;;;180.10;2252.80;;;;;;4979594;28;20268;-58
2022/02/09 20:48:17;;;;;;;49.05;28.60;;;180.10;2252.80;;;;;;4972718;28;20027;-58
2022/02/09 20:50:44;;;;;;;21.13;13.15;;;180.10;2252.80;;;;;;4970496;28;20143;-57
2022/02/09 20:53:10;;;;;;;45.33;26.88;;;180.10;2252.80;;;;;;4969697;28;20512;-58
2022/02/09 20:55:36;;;;;;;56.35;32.35;;;180.00;2252.80;;;;;;4970266;28;20041;-58
2022/02/09 20:58:03;;;;;;;33.50;22.65;;;180.00;2252.80;;;;;;4969325;28;20031;-61
2022/02/09 21:04:01;;;;;;;84.00;50.45;;;179.80;2252.80;;;;;;4970349;28;20544;-59
2022/02/09 21:11:09;;;;;;;70.50;47.00;;;179.90;2252.80;;;;;;4969946;28;20027;-60
2022/02/09 21:13:48;;;;;;;163.65;94.03;;;179.90;2252.80;;;;;;4970123;28;20063;-58
2022/02/09 22:29:10;;;;;;;32.38;20.77;;;154.20;2252.80;;;;;;4974357;28;20536;-58
2022/02/09 22:50:43;;;;;;;143.45;85.53;;;154.20;2252.80;;;;;;4914417;29;20439;-58
2022/02/09 22:55:53;;;;;;;101.43;66.18;;;154.30;2252.80;;;;;;4914550;29;20064;-59
2022/02/09 22:58:19;;;;;;;100.47;68.97;;;154.30;2252.80;;;;;;4914031;29;20466;-58
2022/02/09 23:03:28;;;;;;;119.25;83.20;;;154.30;2252.80;;;;;;4914127;29;20103;-57
2022/02/09 23:09:26;;;;;;;38.80;27.60;;;154.20;2252.80;;;;;;4876370;29;20081;-58
2022/02/09 23:12:31;;;;;;;33.92;20.63;;;154.10;2252.80;;;;;;4876351;29;20045;-59
